TimeEDT,TemperatureF,Dew PointF,Humidity,Sea Level PressureIn,VisibilityMPH,Wind Direction,Wind SpeedMPH,Gust SpeedMPH,PrecipitationIn,Events,Conditions,WindDirDegrees,DateUTC
12:53 AM,64.0,54.0,70,29.86,10.0,South,17.3,24.2,N/A,,Overcast,190,2014-04-15 04:53:00
1:53 AM,64.0,55.0,73,29.86,10.0,South,18.4,26.5,N/A,,Overcast,180,2014-04-15 05:53:00
2:18 AM,64.0,55.9,75,29.82,10.0,South,17.3,28.8,N/A,,Mostly Cloudy,180,2014-04-15 06:18:00
2:53 AM,64.0,55.9,75,29.85,10.0,South,12.7,20.7,N/A,,Mostly Cloudy,190,2014-04-15 06:53:00
3:18 AM,64.0,55.9,75,29.81,10.0,South,13.8,21.9,N/A,,Overcast,190,2014-04-15 07:18:00
3:53 AM,64.0,55.9,75,29.84,10.0,South,16.1,21.9,N/A,,Overcast,190,2014-04-15 07:53:00
4:53 AM,64.0,55.9,75,29.83,10.0,South,15.0,23.0,N/A,,Overcast,190,2014-04-15 08:53:00
5:53 AM,64.0,55.9,75,29.82,10.0,South,13.8,-,N/A,,Overcast,180,2014-04-15 09:53:00
6:53 AM,63.0,57.0,81,29.81,10.0,South,17.3,24.2,N/A,,Overcast,180,2014-04-15 10:53:00
7:53 AM,63.0,57.0,81,29.79,10.0,South,15.0,24.2,N/A,,Overcast,170,2014-04-15 11:53:00
8:53 AM,63.0,57.0,81,29.78,10.0,South,24.2,29.9,0.00,,Overcast,190,2014-04-15 12:53:00
9:53 AM,62.1,59.0,90,29.75,6.0,South,16.1,25.3,0.01,Rain,Light Rain,180,2014-04-15 13:53:00
10:03 AM,62.1,59.0,90,29.71,2.5,South,13.8,23.0,0.00,Rain,Light Rain,170,2014-04-15 14:03:00
10:53 AM,62.1,59.0,90,29.73,2.5,South,18.4,25.3,0.01,Rain,Light Rain,170,2014-04-15 14:53:00
11:53 AM,63.0,59.0,87,29.69,2.5,South,17.3,26.5,0.00,Rain,Light Rain,170,2014-04-15 15:53:00
11:57 AM,63.0,59.0,87,29.66,4.0,South,19.6,27.6,0.00,,Overcast,170,2014-04-15 15:57:00
12:53 PM,66.0,57.9,75,29.65,7.0,South,19.6,33.4,0.00,,Overcast,180,2014-04-15 16:53:00
1:31 PM,63.0,59.0,87,29.60,2.0,South,25.3,42.6,0.04,Rain,Rain,180,2014-04-15 17:31:00
1:53 PM,62.1,60.1,93,29.63,4.0,South,24.2,36.8,0.12,Rain,Rain,170,2014-04-15 17:53:00
2:15 PM,62.1,60.1,93,29.59,5.0,South,16.1,33.4,0.04,Rain,Rain,180,2014-04-15 18:15:00
2:53 PM,62.1,59.0,90,29.60,10.0,South,19.6,27.6,0.08,Rain,Light Rain,170,2014-04-15 18:53:00
3:11 PM,62.1,59.0,90,29.55,2.5,South,18.4,31.1,0.02,Rain,Light Rain,170,2014-04-15 19:11:00
3:33 PM,63.0,59.0,87,29.54,8.0,South,18.4,32.2,0.03,Rain,Light Rain,170,2014-04-15 19:33:00
3:53 PM,63.0,59.0,87,29.56,10.0,South,19.6,27.6,0.04,Rain,Light Rain,180,2014-04-15 19:53:00
4:53 PM,63.0,59.0,87,29.55,10.0,South,21.9,28.8,0.00,Rain,Light Rain,180,2014-04-15 20:53:00
5:53 PM,63.0,59.0,87,29.55,10.0,South,20.7,31.1,0.01,Rain,Light Rain,190,2014-04-15 21:53:00
6:53 PM,63.0,57.9,84,29.55,10.0,South,18.4,26.5,0.00,Rain,Light Rain,180,2014-04-15 22:53:00
7:53 PM,63.0,57.9,84,29.57,10.0,WSW,9.2,26.5,0.01,Rain,Light Rain,240,2014-04-15 23:53:00
8:14 PM,57.0,53.1,87,29.55,8.0,WNW,8.1,19.6,0.02,Rain,Light Rain,290,2014-04-16 00:14:00
8:40 PM,55.0,48.9,80,29.59,10.0,WNW,16.1,19.6,0.02,,Overcast,300,2014-04-16 00:40:00
8:53 PM,53.1,48.0,83,29.63,4.0,WNW,11.5,19.6,0.03,Rain,Light Rain,300,2014-04-16 00:53:00
9:53 PM,48.0,43.0,83,29.69,4.0,WNW,12.7,23.0,0.03,Rain,Light Rain,300,2014-04-16 01:53:00
10:29 PM,45.0,39.9,82,29.68,3.0,WNW,15.0,25.3,0.03,Rain,Light Rain,300,2014-04-16 02:29:00
10:53 PM,43.0,39.0,86,29.72,4.0,WNW,16.1,23.0,0.05,Rain,Light Rain,300,2014-04-16 02:53:00
11:17 PM,42.1,37.9,85,29.71,4.0,WNW,12.7,21.9,0.02,Rain,Light Rain,290,2014-04-16 03:17:00
11:53 PM,41.0,36.0,82,29.77,4.0,WNW,12.7,23.0,0.07,Rain,Rain,300,2014-04-16 03:53:00